sensor_id;sensor_type;location;lat;lon;timestamp;P1;P2;P0
46094;PMS5003;31832;50.746;-2.716;2024-01-15T00:00:29;13;11;
46094;PMS5003;31832;50.746;-2.716;2024-01-15T00:02:54;10;8;
46094;PMS5003;31832;50.746;-2.716;2024-01-15T00:05:20;10;10;
46094;PMS5003;31832;50.746;-2.716;2024-01-15T00:07:45;5;5;
46094;PMS5003;31832;50.746;-2.716;2024-01-15T00:10:10;7;7;
46094;PMS5003;31832;50.746;-2.716;2024-01-15T00:12:36;7;7;
46094;PMS5003;31832;50.746;-2.716;2024-01-15T00:15:01;8;7;
46094;PMS5003;31832;50.746;-2.716;2024-01-15T00:17:26;7;7;
46094;PMS5003;31832;50.746;-2.716;2024-01-15T00:19:52;6;6;
46094;PMS5003;31832;50.746;-2.716;2024-01-15T00:22:17;9;7;
46094;PMS5003;31832;50.746;-2.716;2024-01-15T00:24:42;9;8;
46094;PMS5003;31832;50.746;-2.716;2024-01-15T00:27:07;12;11;
46094;PMS5003;31832;50.746;-2.716;2024-01-15T00:29:33;12;11;
46094;PMS5003;31832;50.746;-2.716;2024-01-15T00:31:58;10;9;
46094;PMS5003;31832;50.746;-2.716;2024-01-15T00:34:23;9;8;
46094;PMS5003;31832;50.746;-2.716;2024-01-15T00:36:49;11;10;
46094;PMS5003;31832;50.746;-2.716;2024-01-15T00:39:14;7;7;
46094;PMS5003;31832;50.746;-2.716;2024-01-15T00:41:40;10;7;
46094;PMS5003;31832;50.746;-2.716;2024-01-15T00:44:05;25;22;
46094;PMS5003;31832;50.746;-2.716;2024-01-15T00:46:31;21;20;
46094;PMS5003;31832;50.746;-2.716;2024-01-15T00:48:56;7;5;
46094;PMS5003;31832;50.746;-2.716;2024-01-15T00:51:22;6;6;
46094;PMS5003;31832;50.746;-2.716;2024-01-15T00:53:47;6;6;
46094;PMS5003;31832;50.746;-2.716;2024-01-15T00:56:12;4;4;
46094;PMS5003;31832;50.746;-2.716;2024-01-15T00:58:38;11;8;
46094;PMS5003;31832;50.746;-2.716;2024-01-15T01:01:03;4;4;
46094;PMS5003;31832;50.746;-2.716;2024-01-15T01:03:28;4;3;
46094;PMS5003;31832;50.746;-2.716;2024-01-15T01:05:54;2;2;
46094;PMS5003;31832;50.746;-2.716;2024-01-15T01:08:18;4;2;
46094;PMS5003;31832;50.746;-2.716;2024-01-15T01:10:44;2;2;
46094;PMS5003;31832;50.746;-2.716;2024-01-15T01:13:09;3;1;
46094;PMS5003;31832;50.746;-2.716;2024-01-15T01:15:34;2;2;
46094;PMS5003;31832;50.746;-2.716;2024-01-15T01:17:59;3;3;
46094;PMS5003;31832;50.746;-2.716;2024-01-15T01:20:25;6;6;
46094;PMS5003;31832;50.746;-2.716;2024-01-15T01:22:50;4;4;
46094;PMS5003;31832;50.746;-2.716;2024-01-15T01:25:15;2;2;
46094;PMS5003;31832;50.746;-2.716;2024-01-15T01:27:41;2;2;
46094;PMS5003;31832;50.746;-2.716;2024-01-15T01:30:06;3;3;
46094;PMS5003;31832;50.746;-2.716;2024-01-15T01:32:31;4;4;
46094;PMS5003;31832;50.746;-2.716;2024-01-15T01:34:57;5;5;
46094;PMS5003;31832;50.746;-2.716;2024-01-15T01:37:22;2;2;
46094;PMS5003;31832;50.746;-2.716;2024-01-15T01:39:47;4;4;
46094;PMS5003;31832;50.746;-2.716;2024-01-15T01:42:12;4;4;
46094;PMS5003;31832;50.746;-2.716;2024-01-15T01:44:37;3;3;
46094;PMS5003;31832;50.746;-2.716;2024-01-15T01:49:28;6;5;
46094;PMS5003;31832;50.746;-2.716;2024-01-15T01:51:53;4;4;
46094;PMS5003;31832;50.746;-2.716;2024-01-15T01:54:18;3;3;
46094;PMS5003;31832;50.746;-2.716;2024-01-15T01:56:44;2;2;
46094;PMS5003;31832;50.746;-2.716;2024-01-15T01:59:09;5;5;
46094;PMS5003;31832;50.746;-2.716;2024-01-15T02:01:35;4;2;
46094;PMS5003;31832;50.746;-2.716;2024-01-15T02:04:00;4;4;
46094;PMS5003;31832;50.746;-2.716;2024-01-15T02:06:25;5;3;
46094;PMS5003;31832;50.746;-2.716;2024-01-15T02:08:50;5;4;
46094;PMS5003;31832;50.746;-2.716;2024-01-15T02:11:16;3;3;
46094;PMS5003;31832;50.746;-2.716;2024-01-15T02:13:41;6;4;
46094;PMS5003;31832;50.746;-2.716;2024-01-15T02:16:06;5;4;
46094;PMS5003;31832;50.746;-2.716;2024-01-15T02:20:56;5;5;
46094;PMS5003;31832;50.746;-2.716;2024-01-15T02:25:47;6;3;
46094;PMS5003;31832;50.746;-2.716;2024-01-15T02:28:13;4;3;
46094;PMS5003;31832;50.746;-2.716;2024-01-15T02:30:38;4;4;
46094;PMS5003;31832;50.746;-2.716;2024-01-15T02:33:03;2;2;
46094;PMS5003;31832;50.746;-2.716;2024-01-15T02:35:28;3;3;
46094;PMS5003;31832;50.746;-2.716;2024-01-15T02:37:53;3;3;
46094;PMS5003;31832;50.746;-2.716;2024-01-15T02:40:19;4;4;
46094;PMS5003;31832;50.746;-2.716;2024-01-15T02:42:44;4;4;
46094;PMS5003;31832;50.746;-2.716;2024-01-15T02:45:09;5;4;
46094;PMS5003;31832;50.746;-2.716;2024-01-15T02:47:34;3;3;
46094;PMS5003;31832;50.746;-2.716;2024-01-15T02:50:00;6;5;
46094;PMS5003;31832;50.746;-2.716;2024-01-15T02:52:25;12;10;
46094;PMS5003;31832;50.746;-2.716;2024-01-15T02:54:50;8;7;
46094;PMS5003;31832;50.746;-2.716;2024-01-15T02:57:16;5;5;
46094;PMS5003;31832;50.746;-2.716;2024-01-15T02:59:41;5;5;
46094;PMS5003;31832;50.746;-2.716;2024-01-15T03:02:07;5;5;
46094;PMS5003;31832;50.746;-2.716;2024-01-15T03:04:32;6;6;
46094;PMS5003;31832;50.746;-2.716;2024-01-15T03:06:57;4;4;
46094;PMS5003;31832;50.746;-2.716;2024-01-15T03:09:22;7;7;
46094;PMS5003;31832;50.746;-2.716;2024-01-15T03:11:48;8;7;
46094;PMS5003;31832;50.746;-2.716;2024-01-15T03:14:13;10;8;
46094;PMS5003;31832;50.746;-2.716;2024-01-15T03:16:38;9;8;
46094;PMS5003;31832;50.746;-2.716;2024-01-15T03:19:04;10;10;
46094;PMS5003;31832;50.746;-2.716;2024-01-15T03:21:29;18;16;
46094;PMS5003;31832;50.746;-2.716;2024-01-15T03:23:54;15;15;
46094;PMS5003;31832;50.746;-2.716;2024-01-15T03:26:20;15;12;
46094;PMS5003;31832;50.746;-2.716;2024-01-15T03:28:46;16;15;
46094;PMS5003;31832;50.746;-2.716;2024-01-15T03:31:12;11;11;
46094;PMS5003;31832;50.746;-2.716;2024-01-15T03:33:38;13;13;
46094;PMS5003;31832;50.746;-2.716;2024-01-15T03:36:03;11;11;
46094;PMS5003;31832;50.746;-2.716;2024-01-15T03:38:29;10;10;
46094;PMS5003;31832;50.746;-2.716;2024-01-15T03:40:54;7;7;
46094;PMS5003;31832;50.746;-2.716;2024-01-15T03:43:20;12;11;
46094;PMS5003;31832;50.746;-2.716;2024-01-15T03:45:45;10;8;
46094;PMS5003;31832;50.746;-2.716;2024-01-15T03:48:11;14;11;
46094;PMS5003;31832;50.746;-2.716;2024-01-15T03:50:37;9;9;
46094;PMS5003;31832;50.746;-2.716;2024-01-15T03:53:02;8;8;
46094;PMS5003;31832;50.746;-2.716;2024-01-15T03:55:27;9;8;
46094;PMS5003;31832;50.746;-2.716;2024-01-15T03:57:53;7;7;
46094;PMS5003;31832;50.746;-2.716;2024-01-15T04:00:19;7;7;
46094;PMS5003;31832;50.746;-2.716;2024-01-15T04:02:44;11;8;
46094;PMS5003;31832;50.746;-2.716;2024-01-15T04:05:10;6;6;
46094;PMS5003;31832;50.746;-2.716;2024-01-15T04:07:35;10;10;
46094;PMS5003;31832;50.746;-2.716;2024-01-15T04:10:00;8;8;
46094;PMS5003;31832;50.746;-2.716;2024-01-15T04:12:31;11;10;
46094;PMS5003;31832;50.746;-2.716;2024-01-15T04:14:51;6;6;
46094;PMS5003;31832;50.746;-2.716;2024-01-15T04:17:16;8;8;
46094;PMS5003;31832;50.746;-2.716;2024-01-15T04:19:43;8;8;
46094;PMS5003;31832;50.746;-2.716;2024-01-15T04:22:07;6;6;
46094;PMS5003;31832;50.746;-2.716;2024-01-15T04:24:33;7;7;
46094;PMS5003;31832;50.746;-2.716;2024-01-15T04:26:59;7;6;
46094;PMS5003;31832;50.746;-2.716;2024-01-15T04:29:24;7;7;
46094;PMS5003;31832;50.746;-2.716;2024-01-15T04:31:49;6;6;
46094;PMS5003;31832;50.746;-2.716;2024-01-15T04:34:14;7;7;
46094;PMS5003;31832;50.746;-2.716;2024-01-15T04:36:41;7;5;
46094;PMS5003;31832;50.746;-2.716;2024-01-15T04:39:06;7;6;
46094;PMS5003;31832;50.746;-2.716;2024-01-15T04:41:31;7;6;
46094;PMS5003;31832;50.746;-2.716;2024-01-15T04:43:56;6;6;
46094;PMS5003;31832;50.746;-2.716;2024-01-15T04:46:22;7;6;
46094;PMS5003;31832;50.746;-2.716;2024-01-15T04:48:47;8;5;
46094;PMS5003;31832;50.746;-2.716;2024-01-15T04:51:12;8;7;
46094;PMS5003;31832;50.746;-2.716;2024-01-15T04:53:38;8;6;
46094;PMS5003;31832;50.746;-2.716;2024-01-15T04:56:03;7;5;
46094;PMS5003;31832;50.746;-2.716;2024-01-15T04:58:28;5;5;
46094;PMS5003;31832;50.746;-2.716;2024-01-15T05:00:53;4;4;
46094;PMS5003;31832;50.746;-2.716;2024-01-15T05:03:19;5;5;
46094;PMS5003;31832;50.746;-2.716;2024-01-15T05:05:45;7;6;
46094;PMS5003;31832;50.746;-2.716;2024-01-15T05:08:10;6;6;
46094;PMS5003;31832;50.746;-2.716;2024-01-15T05:10:35;6;6;
46094;PMS5003;31832;50.746;-2.716;2024-01-15T05:13:00;5;5;
46094;PMS5003;31832;50.746;-2.716;2024-01-15T05:15:26;4;4;
46094;PMS5003;31832;50.746;-2.716;2024-01-15T05:17:51;4;4;
46094;PMS5003;31832;50.746;-2.716;2024-01-15T05:20:16;4;4;
46094;PMS5003;31832;50.746;-2.716;2024-01-15T05:22:42;5;5;
46094;PMS5003;31832;50.746;-2.716;2024-01-15T05:25:07;8;6;
46094;PMS5003;31832;50.746;-2.716;2024-01-15T05:27:32;7;6;
46094;PMS5003;31832;50.746;-2.716;2024-01-15T05:29:58;5;5;
46094;PMS5003;31832;50.746;-2.716;2024-01-15T05:32:23;5;5;
46094;PMS5003;31832;50.746;-2.716;2024-01-15T05:34:48;6;5;
46094;PMS5003;31832;50.746;-2.716;2024-01-15T05:37:14;8;5;
46094;PMS5003;31832;50.746;-2.716;2024-01-15T05:39:39;5;5;
46094;PMS5003;31832;50.746;-2.716;2024-01-15T05:42:05;7;5;
46094;PMS5003;31832;50.746;-2.716;2024-01-15T05:44:30;6;6;
46094;PMS5003;31832;50.746;-2.716;2024-01-15T05:46:55;4;4;
46094;PMS5003;31832;50.746;-2.716;2024-01-15T05:49:21;5;5;
46094;PMS5003;31832;50.746;-2.716;2024-01-15T05:51:46;5;5;
46094;PMS5003;31832;50.746;-2.716;2024-01-15T05:54:11;4;4;
46094;PMS5003;31832;50.746;-2.716;2024-01-15T05:56:37;5;3;
46094;PMS5003;31832;50.746;-2.716;2024-01-15T05:59:02;4;4;
46094;PMS5003;31832;50.746;-2.716;2024-01-15T06:01:28;5;3;
46094;PMS5003;31832;50.746;-2.716;2024-01-15T06:03:53;8;7;
46094;PMS5003;31832;50.746;-2.716;2024-01-15T06:06:19;4;4;
46094;PMS5003;31832;50.746;-2.716;2024-01-15T06:08:44;4;4;
46094;PMS5003;31832;50.746;-2.716;2024-01-15T06:11:09;9;5;
46094;PMS5003;31832;50.746;-2.716;2024-01-15T06:13:34;6;6;
46094;PMS5003;31832;50.746;-2.716;2024-01-15T06:15:59;3;3;
46094;PMS5003;31832;50.746;-2.716;2024-01-15T06:18:25;6;4;
46094;PMS5003;31832;50.746;-2.716;2024-01-15T06:20:50;2;2;
46094;PMS5003;31832;50.746;-2.716;2024-01-15T06:23:15;4;4;
46094;PMS5003;31832;50.746;-2.716;2024-01-15T06:25:41;4;4;
46094;PMS5003;31832;50.746;-2.716;2024-01-15T06:28:06;2;2;
46094;PMS5003;31832;50.746;-2.716;2024-01-15T06:30:31;4;4;
46094;PMS5003;31832;50.746;-2.716;2024-01-15T06:32:57;4;4;
46094;PMS5003;31832;50.746;-2.716;2024-01-15T06:35:22;5;3;
46094;PMS5003;31832;50.746;-2.716;2024-01-15T06:37:47;7;7;
46094;PMS5003;31832;50.746;-2.716;2024-01-15T06:40:13;4;4;
46094;PMS5003;31832;50.746;-2.716;2024-01-15T06:42:38;7;6;
46094;PMS5003;31832;50.746;-2.716;2024-01-15T06:45:04;7;5;
46094;PMS5003;31832;50.746;-2.716;2024-01-15T06:47:29;4;4;
46094;PMS5003;31832;50.746;-2.716;2024-01-15T06:49:54;4;4;
46094;PMS5003;31832;50.746;-2.716;2024-01-15T06:52:19;6;6;
46094;PMS5003;31832;50.746;-2.716;2024-01-15T06:54:45;3;3;
46094;PMS5003;31832;50.746;-2.716;2024-01-15T06:57:12;5;4;
46094;PMS5003;31832;50.746;-2.716;2024-01-15T06:59:36;4;2;
46094;PMS5003;31832;50.746;-2.716;2024-01-15T07:02:02;6;5;
46094;PMS5003;31832;50.746;-2.716;2024-01-15T07:04:27;3;3;
46094;PMS5003;31832;50.746;-2.716;2024-01-15T07:06:52;4;3;
46094;PMS5003;31832;50.746;-2.716;2024-01-15T07:09:18;2;2;
46094;PMS5003;31832;50.746;-2.716;2024-01-15T07:11:44;4;3;
46094;PMS5003;31832;50.746;-2.716;2024-01-15T07:14:08;4;3;
46094;PMS5003;31832;50.746;-2.716;2024-01-15T07:16:34;1;1;
46094;PMS5003;31832;50.746;-2.716;2024-01-15T07:18:59;2;2;
46094;PMS5003;31832;50.746;-2.716;2024-01-15T07:21:25;3;2;
46094;PMS5003;31832;50.746;-2.716;2024-01-15T07:23:50;2;2;
46094;PMS5003;31832;50.746;-2.716;2024-01-15T07:26:15;3;3;
46094;PMS5003;31832;50.746;-2.716;2024-01-15T07:28:40;3;3;
46094;PMS5003;31832;50.746;-2.716;2024-01-15T07:31:06;3;3;
46094;PMS5003;31832;50.746;-2.716;2024-01-15T07:33:31;1;1;
46094;PMS5003;31832;50.746;-2.716;2024-01-15T07:35:57;2;2;
46094;PMS5003;31832;50.746;-2.716;2024-01-15T07:38:22;2;2;
46094;PMS5003;31832;50.746;-2.716;2024-01-15T07:40:47;5;4;
46094;PMS5003;31832;50.746;-2.716;2024-01-15T07:43:13;3;3;
46094;PMS5003;31832;50.746;-2.716;2024-01-15T07:45:38;3;2;
46094;PMS5003;31832;50.746;-2.716;2024-01-15T07:48:04;2;2;
46094;PMS5003;31832;50.746;-2.716;2024-01-15T07:50:29;3;3;
46094;PMS5003;31832;50.746;-2.716;2024-01-15T07:52:54;2;2;
46094;PMS5003;31832;50.746;-2.716;2024-01-15T07:55:20;2;1;
46094;PMS5003;31832;50.746;-2.716;2024-01-15T07:57:45;3;3;
46094;PMS5003;31832;50.746;-2.716;2024-01-15T08:00:10;3;2;
46094;PMS5003;31832;50.746;-2.716;2024-01-15T08:02:35;2;2;
46094;PMS5003;31832;50.746;-2.716;2024-01-15T08:05:01;7;3;
46094;PMS5003;31832;50.746;-2.716;2024-01-15T08:07:26;3;3;
46094;PMS5003;31832;50.746;-2.716;2024-01-15T08:09:52;4;4;
46094;PMS5003;31832;50.746;-2.716;2024-01-15T08:12:17;4;4;
46094;PMS5003;31832;50.746;-2.716;2024-01-15T08:14:43;3;3;
46094;PMS5003;31832;50.746;-2.716;2024-01-15T08:17:08;3;2;
46094;PMS5003;31832;50.746;-2.716;2024-01-15T08:19:33;2;2;
46094;PMS5003;31832;50.746;-2.716;2024-01-15T08:22:00;2;2;
46094;PMS5003;31832;50.746;-2.716;2024-01-15T08:24:24;5;3;
46094;PMS5003;31832;50.746;-2.716;2024-01-15T08:26:49;6;4;
46094;PMS5003;31832;50.746;-2.716;2024-01-15T08:29:14;4;3;
46094;PMS5003;31832;50.746;-2.716;2024-01-15T08:31:40;8;5;
46094;PMS5003;31832;50.746;-2.716;2024-01-15T08:34:05;4;3;
46094;PMS5003;31832;50.746;-2.716;2024-01-15T08:36:30;4;4;
46094;PMS5003;31832;50.746;-2.716;2024-01-15T08:38:56;4;4;
46094;PMS5003;31832;50.746;-2.716;2024-01-15T08:41:21;3;3;
46094;PMS5003;31832;50.746;-2.716;2024-01-15T08:43:46;2;2;
46094;PMS5003;31832;50.746;-2.716;2024-01-15T08:46:12;2;2;
46094;PMS5003;31832;50.746;-2.716;2024-01-15T08:48:37;3;3;
46094;PMS5003;31832;50.746;-2.716;2024-01-15T08:51:02;3;3;
46094;PMS5003;31832;50.746;-2.716;2024-01-15T08:53:27;5;5;
46094;PMS5003;31832;50.746;-2.716;2024-01-15T08:55:53;6;5;
46094;PMS5003;31832;50.746;-2.716;2024-01-15T08:58:18;4;4;
46094;PMS5003;31832;50.746;-2.716;2024-01-15T09:00:43;5;5;
46094;PMS5003;31832;50.746;-2.716;2024-01-15T09:03:08;4;3;
46094;PMS5003;31832;50.746;-2.716;2024-01-15T09:05:34;3;3;
46094;PMS5003;31832;50.746;-2.716;2024-01-15T09:07:59;10;9;
46094;PMS5003;31832;50.746;-2.716;2024-01-15T09:10:25;13;12;
46094;PMS5003;31832;50.746;-2.716;2024-01-15T09:12:51;23;18;
46094;PMS5003;31832;50.746;-2.716;2024-01-15T09:15:17;17;17;
46094;PMS5003;31832;50.746;-2.716;2024-01-15T09:17:43;18;16;
46094;PMS5003;31832;50.746;-2.716;2024-01-15T09:20:08;18;17;
46094;PMS5003;31832;50.746;-2.716;2024-01-15T09:22:33;30;24;
46094;PMS5003;31832;50.746;-2.716;2024-01-15T09:24:58;28;26;
46094;PMS5003;31832;50.746;-2.716;2024-01-15T09:27:24;27;23;
46094;PMS5003;31832;50.746;-2.716;2024-01-15T09:29:50;26;21;
46094;PMS5003;31832;50.746;-2.716;2024-01-15T09:32:15;22;19;
46094;PMS5003;31832;50.746;-2.716;2024-01-15T09:34:40;24;21;
46094;PMS5003;31832;50.746;-2.716;2024-01-15T09:37:06;19;18;
46094;PMS5003;31832;50.746;-2.716;2024-01-15T09:39:32;21;21;
46094;PMS5003;31832;50.746;-2.716;2024-01-15T09:41:57;31;28;
46094;PMS5003;31832;50.746;-2.716;2024-01-15T09:44:23;22;20;
46094;PMS5003;31832;50.746;-2.716;2024-01-15T09:46:49;18;16;
46094;PMS5003;31832;50.746;-2.716;2024-01-15T09:49:15;11;11;
46094;PMS5003;31832;50.746;-2.716;2024-01-15T09:51:40;11;11;
46094;PMS5003;31832;50.746;-2.716;2024-01-15T09:54:05;9;9;
46094;PMS5003;31832;50.746;-2.716;2024-01-15T09:56:31;40;37;
46094;PMS5003;31832;50.746;-2.716;2024-01-15T09:58:56;49;46;
46094;PMS5003;31832;50.746;-2.716;2024-01-15T10:01:24;45;42;
46094;PMS5003;31832;50.746;-2.716;2024-01-15T10:03:48;30;29;
46094;PMS5003;31832;50.746;-2.716;2024-01-15T10:06:14;19;17;
46094;PMS5003;31832;50.746;-2.716;2024-01-15T10:08:39;16;14;
46094;PMS5003;31832;50.746;-2.716;2024-01-15T10:11:04;17;16;
46094;PMS5003;31832;50.746;-2.716;2024-01-15T10:13:29;27;24;
46094;PMS5003;31832;50.746;-2.716;2024-01-15T10:15:55;12;10;
46094;PMS5003;31832;50.746;-2.716;2024-01-15T10:18:20;5;5;
46094;PMS5003;31832;50.746;-2.716;2024-01-15T10:20:45;10;8;
46094;PMS5003;31832;50.746;-2.716;2024-01-15T10:23:11;18;16;
46094;PMS5003;31832;50.746;-2.716;2024-01-15T10:25:36;11;9;
46094;PMS5003;31832;50.746;-2.716;2024-01-15T10:28:02;13;12;
46094;PMS5003;31832;50.746;-2.716;2024-01-15T10:30:27;12;9;
46094;PMS5003;31832;50.746;-2.716;2024-01-15T10:32:57;10;9;
46094;PMS5003;31832;50.746;-2.716;2024-01-15T10:35:17;11;8;
46094;PMS5003;31832;50.746;-2.716;2024-01-15T10:37:43;8;7;
46094;PMS5003;31832;50.746;-2.716;2024-01-15T10:40:08;13;10;
46094;PMS5003;31832;50.746;-2.716;2024-01-15T10:42:33;17;14;
46094;PMS5003;31832;50.746;-2.716;2024-01-15T10:44:59;11;10;
46094;PMS5003;31832;50.746;-2.716;2024-01-15T10:47:24;9;8;
46094;PMS5003;31832;50.746;-2.716;2024-01-15T10:49:49;12;8;
46094;PMS5003;31832;50.746;-2.716;2024-01-15T10:52:14;18;13;
46094;PMS5003;31832;50.746;-2.716;2024-01-15T10:54:40;13;8;
46094;PMS5003;31832;50.746;-2.716;2024-01-15T10:57:05;5;5;
46094;PMS5003;31832;50.746;-2.716;2024-01-15T10:59:31;8;8;
46094;PMS5003;31832;50.746;-2.716;2024-01-15T11:01:56;6;5;
46094;PMS5003;31832;50.746;-2.716;2024-01-15T11:04:21;3;3;
46094;PMS5003;31832;50.746;-2.716;2024-01-15T11:06:48;3;3;
46094;PMS5003;31832;50.746;-2.716;2024-01-15T11:09:12;4;2;
46094;PMS5003;31832;50.746;-2.716;2024-01-15T11:11:40;1;1;
46094;PMS5003;31832;50.746;-2.716;2024-01-15T11:14:02;3;3;
46094;PMS5003;31832;50.746;-2.716;2024-01-15T11:16:29;2;1;
46094;PMS5003;31832;50.746;-2.716;2024-01-15T11:21:20;4;3;
46094;PMS5003;31832;50.746;-2.716;2024-01-15T11:23:44;3;3;
46094;PMS5003;31832;50.746;-2.716;2024-01-15T11:33:33;4;4;
46094;PMS5003;31832;50.746;-2.716;2024-01-15T11:35:50;2;2;
46094;PMS5003;31832;50.746;-2.716;2024-01-15T11:40:41;3;2;
46094;PMS5003;31832;50.746;-2.716;2024-01-15T11:43:06;3;2;
46094;PMS5003;31832;50.746;-2.716;2024-01-15T11:45:31;4;2;
46094;PMS5003;31832;50.746;-2.716;2024-01-15T11:48:08;2;2;
46094;PMS5003;31832;50.746;-2.716;2024-01-15T11:50:22;2;2;
46094;PMS5003;31832;50.746;-2.716;2024-01-15T11:52:59;1;1;
46094;PMS5003;31832;50.746;-2.716;2024-01-15T11:55:14;3;3;
46094;PMS5003;31832;50.746;-2.716;2024-01-15T11:57:40;2;2;
46094;PMS5003;31832;50.746;-2.716;2024-01-15T12:00:03;2;2;
46094;PMS5003;31832;50.746;-2.716;2024-01-15T12:02:28;5;3;
46094;PMS5003;31832;50.746;-2.716;2024-01-15T12:04:53;1;1;
46094;PMS5003;31832;50.746;-2.716;2024-01-15T12:07:19;1;1;
46094;PMS5003;31832;50.746;-2.716;2024-01-15T12:09:44;3;1;
46094;PMS5003;31832;50.746;-2.716;2024-01-15T12:12:09;2;2;
46094;PMS5003;31832;50.746;-2.716;2024-01-15T12:14:34;1;1;
46094;PMS5003;31832;50.746;-2.716;2024-01-15T12:17:01;2;1;
46094;PMS5003;31832;50.746;-2.716;2024-01-15T12:19:26;2;0;
46094;PMS5003;31832;50.746;-2.716;2024-01-15T12:21:51;3;1;
46094;PMS5003;31832;50.746;-2.716;2024-01-15T12:24:16;0;0;
46094;PMS5003;31832;50.746;-2.716;2024-01-15T12:26:41;2;0;
46094;PMS5003;31832;50.746;-2.716;2024-01-15T12:29:07;1;1;
46094;PMS5003;31832;50.746;-2.716;2024-01-15T12:31:32;1;1;
46094;PMS5003;31832;50.746;-2.716;2024-01-15T12:33:57;3;2;
46094;PMS5003;31832;50.746;-2.716;2024-01-15T12:36:22;1;1;
46094;PMS5003;31832;50.746;-2.716;2024-01-15T12:38:52;1;1;
46094;PMS5003;31832;50.746;-2.716;2024-01-15T12:41:13;1;1;
46094;PMS5003;31832;50.746;-2.716;2024-01-15T12:43:38;1;1;
46094;PMS5003;31832;50.746;-2.716;2024-01-15T12:46:04;2;1;
46094;PMS5003;31832;50.746;-2.716;2024-01-15T12:48:29;1;1;
46094;PMS5003;31832;50.746;-2.716;2024-01-15T12:50:55;2;2;
46094;PMS5003;31832;50.746;-2.716;2024-01-15T12:53:20;2;2;
46094;PMS5003;31832;50.746;-2.716;2024-01-15T12:55:45;2;1;
46094;PMS5003;31832;50.746;-2.716;2024-01-15T12:58:10;4;2;
46094;PMS5003;31832;50.746;-2.716;2024-01-15T13:00:35;2;1;
46094;PMS5003;31832;50.746;-2.716;2024-01-15T13:03:00;2;2;
46094;PMS5003;31832;50.746;-2.716;2024-01-15T13:05:26;3;3;
46094;PMS5003;31832;50.746;-2.716;2024-01-15T13:07:51;2;2;
46094;PMS5003;31832;50.746;-2.716;2024-01-15T13:10:16;2;2;
46094;PMS5003;31832;50.746;-2.716;2024-01-15T13:12:42;3;2;
46094;PMS5003;31832;50.746;-2.716;2024-01-15T13:15:07;4;4;
46094;PMS5003;31832;50.746;-2.716;2024-01-15T13:17:32;4;3;
46094;PMS5003;31832;50.746;-2.716;2024-01-15T13:19:58;3;2;
46094;PMS5003;31832;50.746;-2.716;2024-01-15T13:22:23;4;3;
46094;PMS5003;31832;50.746;-2.716;2024-01-15T13:24:48;4;3;
46094;PMS5003;31832;50.746;-2.716;2024-01-15T13:27:13;4;3;
46094;PMS5003;31832;50.746;-2.716;2024-01-15T13:29:39;3;3;
46094;PMS5003;31832;50.746;-2.716;2024-01-15T13:32:04;5;3;
46094;PMS5003;31832;50.746;-2.716;2024-01-15T13:34:29;7;6;
46094;PMS5003;31832;50.746;-2.716;2024-01-15T13:36:54;2;2;
46094;PMS5003;31832;50.746;-2.716;2024-01-15T13:39:20;1;1;
46094;PMS5003;31832;50.746;-2.716;2024-01-15T13:41:45;4;4;
46094;PMS5003;31832;50.746;-2.716;2024-01-15T13:44:10;3;3;
46094;PMS5003;31832;50.746;-2.716;2024-01-15T13:46:35;2;1;
46094;PMS5003;31832;50.746;-2.716;2024-01-15T13:49:01;2;2;
46094;PMS5003;31832;50.746;-2.716;2024-01-15T13:51:26;2;2;
46094;PMS5003;31832;50.746;-2.716;2024-01-15T13:53:51;3;1;
46094;PMS5003;31832;50.746;-2.716;2024-01-15T13:56:17;3;2;
46094;PMS5003;31832;50.746;-2.716;2024-01-15T13:58:42;1;1;
46094;PMS5003;31832;50.746;-2.716;2024-01-15T14:01:07;1;1;
46094;PMS5003;31832;50.746;-2.716;2024-01-15T14:03:32;1;1;
46094;PMS5003;31832;50.746;-2.716;2024-01-15T14:05:58;2;2;
46094;PMS5003;31832;50.746;-2.716;2024-01-15T14:08:23;3;3;
46094;PMS5003;31832;50.746;-2.716;2024-01-15T14:10:48;2;2;
46094;PMS5003;31832;50.746;-2.716;2024-01-15T14:13:14;2;2;
46094;PMS5003;31832;50.746;-2.716;2024-01-15T14:15:39;0;0;
46094;PMS5003;31832;50.746;-2.716;2024-01-15T14:18:04;0;0;
46094;PMS5003;31832;50.746;-2.716;2024-01-15T14:20:29;1;1;
46094;PMS5003;31832;50.746;-2.716;2024-01-15T14:22:54;2;2;
46094;PMS5003;31832;50.746;-2.716;2024-01-15T14:25:20;1;1;
46094;PMS5003;31832;50.746;-2.716;2024-01-15T14:27:45;5;3;
46094;PMS5003;31832;50.746;-2.716;2024-01-15T14:30:11;2;2;
46094;PMS5003;31832;50.746;-2.716;2024-01-15T14:32:36;1;1;
46094;PMS5003;31832;50.746;-2.716;2024-01-15T14:35:01;2;2;
46094;PMS5003;31832;50.746;-2.716;2024-01-15T14:37:26;1;1;
46094;PMS5003;31832;50.746;-2.716;2024-01-15T14:39:52;1;0;
46094;PMS5003;31832;50.746;-2.716;2024-01-15T14:42:17;0;0;
46094;PMS5003;31832;50.746;-2.716;2024-01-15T14:44:42;1;1;
46094;PMS5003;31832;50.746;-2.716;2024-01-15T14:47:07;2;2;
46094;PMS5003;31832;50.746;-2.716;2024-01-15T14:49:33;1;1;
46094;PMS5003;31832;50.746;-2.716;2024-01-15T14:51:58;1;1;
46094;PMS5003;31832;50.746;-2.716;2024-01-15T14:54:23;3;2;
46094;PMS5003;31832;50.746;-2.716;2024-01-15T14:56:48;3;3;
46094;PMS5003;31832;50.746;-2.716;2024-01-15T14:59:14;2;2;
46094;PMS5003;31832;50.746;-2.716;2024-01-15T15:01:40;2;2;
46094;PMS5003;31832;50.746;-2.716;2024-01-15T15:04:05;3;3;
46094;PMS5003;31832;50.746;-2.716;2024-01-15T15:06:30;2;2;
46094;PMS5003;31832;50.746;-2.716;2024-01-15T15:08:56;2;2;
46094;PMS5003;31832;50.746;-2.716;2024-01-15T15:11:21;3;2;
46094;PMS5003;31832;50.746;-2.716;2024-01-15T15:13:46;2;2;
46094;PMS5003;31832;50.746;-2.716;2024-01-15T15:16:11;3;2;
46094;PMS5003;31832;50.746;-2.716;2024-01-15T15:18:36;4;4;
46094;PMS5003;31832;50.746;-2.716;2024-01-15T15:21:02;3;3;
46094;PMS5003;31832;50.746;-2.716;2024-01-15T15:23:27;2;2;
46094;PMS5003;31832;50.746;-2.716;2024-01-15T15:25:52;3;3;
46094;PMS5003;31832;50.746;-2.716;2024-01-15T15:28:18;2;2;
46094;PMS5003;31832;50.746;-2.716;2024-01-15T15:30:43;1;1;
46094;PMS5003;31832;50.746;-2.716;2024-01-15T15:33:08;3;3;
46094;PMS5003;31832;50.746;-2.716;2024-01-15T15:35:33;3;3;
46094;PMS5003;31832;50.746;-2.716;2024-01-15T15:37:59;9;6;
46094;PMS5003;31832;50.746;-2.716;2024-01-15T15:40:24;3;3;
46094;PMS5003;31832;50.746;-2.716;2024-01-15T15:42:49;4;3;
46094;PMS5003;31832;50.746;-2.716;2024-01-15T15:45:14;3;3;
46094;PMS5003;31832;50.746;-2.716;2024-01-15T15:47:40;2;2;
46094;PMS5003;31832;50.746;-2.716;2024-01-15T15:50:06;2;2;
46094;PMS5003;31832;50.746;-2.716;2024-01-15T15:52:30;4;2;
46094;PMS5003;31832;50.746;-2.716;2024-01-15T15:54:56;3;3;
46094;PMS5003;31832;50.746;-2.716;2024-01-15T15:57:21;5;2;
46094;PMS5003;31832;50.746;-2.716;2024-01-15T15:59:46;5;3;
46094;PMS5003;31832;50.746;-2.716;2024-01-15T16:02:12;3;3;
46094;PMS5003;31832;50.746;-2.716;2024-01-15T16:04:37;7;3;
46094;PMS5003;31832;50.746;-2.716;2024-01-15T16:07:02;6;4;
46094;PMS5003;31832;50.746;-2.716;2024-01-15T16:09:27;3;2;
46094;PMS5003;31832;50.746;-2.716;2024-01-15T16:11:53;3;3;
46094;PMS5003;31832;50.746;-2.716;2024-01-15T16:14:18;3;3;
46094;PMS5003;31832;50.746;-2.716;2024-01-15T16:16:43;4;3;
46094;PMS5003;31832;50.746;-2.716;2024-01-15T16:19:09;4;4;
46094;PMS5003;31832;50.746;-2.716;2024-01-15T16:21:34;3;2;
46094;PMS5003;31832;50.746;-2.716;2024-01-15T16:23:59;3;3;
46094;PMS5003;31832;50.746;-2.716;2024-01-15T16:26:25;5;5;
46094;PMS5003;31832;50.746;-2.716;2024-01-15T16:28:50;5;3;
46094;PMS5003;31832;50.746;-2.716;2024-01-15T16:31:15;2;2;
46094;PMS5003;31832;50.746;-2.716;2024-01-15T16:33:41;5;4;